Main page
METAR-TAF:

METAR-TAF

Airports :

Rundu Airport

Rundu, Namibia

latitude: 17-57-20S, longitude: 019-43-25E, elevation: 1106 m

METAR: missing

Time: 06:53 (04:53 UTC)

Forecast

The report was made 2 hours and 53 minutes ago, at 02:00 UTC
Forecast valid from 16 at 03 UTC to 16 at 12 UTC
Wind 6 kt from the Northeast
Visibility 10 km or more
no clouds below 1500 m and no cumulonimbus
Becoming
from 16 at 07 UTC to 16 at 09 UTC
Visibility 10 km or more
Scattered clouds at a height of 5000 ft

TAF: FYRU 160200Z 1603/1612 04006KT CAVOK BECMG 1607/1609 9999 SCT050

Weather observations and forecasts of more than 4000 airports (METAR and TAF reports).

The available stations are represented by yellow and red dots on the map.

Hover mouse over dot to see the name of the station.

Then click to see weather observations and forecasts.

To change the map : click on the green buttons with a black cross to zoom in, on the green button with a dash to zoom out, or on the green arrows for adjacent maps.


METAR-TAF: